Photometre #549[NE_1.6_Dp] Berlin_FUB AOT

File : 20200927_549.hum

27/09/2020,05:59:12,TEMP=6.3,BA=5.64,STAT.A=6.5,ExtBa=13.70
27/09/2020,06:12:56,TEMP=6.3,BA=5.60,STAT.A=6.5,ExtBa=13.70
27/09/2020,06:26:40,TEMP=6.4,BA=5.60,STAT.A=6.5,ExtBa=13.70
27/09/2020,06:40:23,TEMP=6.5,BA=5.60,STAT.A=6.5,ExtBa=13.71
27/09/2020,06:54:07,TEMP=6.6,BA=5.60,STAT.A=6.5,ExtBa=13.71
27/09/2020,07:07:51,TEMP=6.8,BA=5.60,STAT.A=6.5,ExtBa=13.71
27/09/2020,07:21:36,TEMP=7.0,BA=5.60,STAT.B=6.5,ExtBa=13.72
27/09/2020,07:35:20,TEMP=7.4,BA=5.60,STAT.A=6.5,ExtBa=13.73
27/09/2020,07:49:04,TEMP=7.9,BA=5.60,STAT.A=6.5,ExtBa=13.72
27/09/2020,08:02:50,TEMP=8.3,BA=5.60,STAT.A=6.5,ExtBa=13.72
27/09/2020,08:16:35,TEMP=8.7,BA=5.60,STAT.A=6.5,ExtBa=13.73
27/09/2020,08:18:40,TEMP=9.1,BA=5.60,STAT.C=6.5,ExtBa=13.66
27/09/2020,08:20:45,TEMP=9.3,BA=5.60,STAT.A=6.5,ExtBa=13.63
27/09/2020,08:34:31,TEMP=8.9,BA=5.60,STAT.A=7.0,ExtBa=13.71
27/09/2020,08:48:16,TEMP=9.0,BA=5.60,STAT.F,ExtBa=13.73
27/09/2020,09:01:57,TEMP=9.4,BA=5.60,STAT.D=7.0,ExtBa=13.73
27/09/2020,09:15:39,TEMP=10.1,BA=5.60,STAT.D=7.0,ExtBa=13.73
27/09/2020,09:29:31,TEMP=11.2,BA=5.60,STAT.D=7.0,ExtBa=13.74
27/09/2020,09:43:16,TEMP=11.2,BA=5.60,STAT.F,ExtBa=13.73
27/09/2020,09:57:59,TEMP=11.2,BA=5.60,STAT.D=7.0,ExtBa=13.73
27/09/2020,10:11:40,TEMP=11.6,BA=5.60,STAT.D=7.0,ExtBa=13.73
27/09/2020,10:25:20,TEMP=11.6,BA=5.60,STAT.D=7.0,ExtBa=13.73
27/09/2020,10:39:03,TEMP=12.1,BA=5.60,STAT.F,ExtBa=13.71
27/09/2020,11:08:29,TEMP=14.1,BA=5.60,STAT.D=7.0,ExtBa=13.18
27/09/2020,11:22:27,TEMP=14.2,BA=5.60,STAT.D=7.0,ExtBa=13.35
27/09/2020,11:36:10,TEMP=14.3,BA=5.60,STAT.D=7.0,ExtBa=13.51
27/09/2020,11:50:07,TEMP=14.6,BA=5.60,STAT.F,ExtBa=13.60
27/09/2020,12:03:52,TEMP=15.1,BA=5.60,STAT.D=7.0,ExtBa=13.67
27/09/2020,12:17:37,TEMP=14.6,BA=5.60,STAT.D=7.0,ExtBa=13.72
27/09/2020,12:31:22,TEMP=14.4,BA=5.60,STAT.D=7.0,ExtBa=13.74
27/09/2020,12:46:20,TEMP=14.2,BA=5.64,STAT.F,ExtBa=13.74
27/09/2020,13:00:01,TEMP=13.5,BA=5.60,STAT.D=7.0,ExtBa=13.75
27/09/2020,13:13:44,TEMP=13.2,BA=5.60,STAT.D=7.0,ExtBa=13.75
27/09/2020,13:27:27,TEMP=13.0,BA=5.60,STAT.D=7.0,ExtBa=13.75
27/09/2020,13:41:11,TEMP=12.7,BA=5.60,STAT.F,ExtBa=13.75
27/09/2020,13:54:53,TEMP=12.5,BA=5.60,STAT.D=7.0,ExtBa=13.74
27/09/2020,14:08:36,TEMP=12.3,BA=5.60,STAT.D=7.0,ExtBa=13.73
27/09/2020,14:22:19,TEMP=12.0,BA=5.60,STAT.D=7.0,ExtBa=13.71
27/09/2020,14:36:03,TEMP=11.9,BA=5.60,STAT.F,ExtBa=13.71
27/09/2020,14:49:47,TEMP=11.9,BA=5.60,STAT.A=7.0,ExtBa=13.70
27/09/2020,15:03:34,TEMP=11.7,BA=5.60,STAT.A=7.0,ExtBa=13.70
27/09/2020,15:17:19,TEMP=11.7,BA=5.60,STAT.C=7.0,ExtBa=13.69
27/09/2020,15:31:05,TEMP=11.6,BA=5.60,STAT.A=7.0,ExtBa=13.69
27/09/2020,15:44:50,TEMP=11.5,BA=5.60,STAT.A=7.0,ExtBa=13.69
27/09/2020,15:58:36,TEMP=11.4,BA=5.60,STAT.A=7.0,ExtBa=13.69
27/09/2020,16:12:21,TEMP=11.1,BA=5.60,STAT.A=7.0,ExtBa=13.70
27/09/2020,16:26:07,TEMP=10.6,BA=5.60,STAT.A=7.0,ExtBa=13.69
27/09/2020,16:39:52,TEMP=10.3,BA=5.60,STAT.A=7.0,ExtBa=13.71
27/09/2020,16:53:37,TEMP=10.2,BA=5.60,STAT.A=7.0,ExtBa=13.71